aviador You're here:

PAKF Decoded Metar

FALSE PASS in AK, US
Report Time2017-05-30 11:01:00
UTC Time2017-05-30 11:11:15
Flight Rules mvfr MVFR
Wind120° at 04 kt
W.Decomp.*RWY 14: 3.2 kt HW 2.4 kt LCW
W.Rank120° ranks 18
Current wind is below 120° avg. (11.4)
Visibility9999 m
Phenomena:N/A
Clouds:Overcast 018 Hf
Expected CloudBase > 1,200 ft AGL from Temp-Dew spread
Ceiling1,800 ft
Temp07°C (ISA -8)
Dew Point04°C (81% RH)
AAT4.2°C
QNH1012 hPa
Density Alt-794 ft
Elevation19 ft
Report Wrong Elevation
Raw Report
PAKF 301101Z AUTO 12004KT 10SM OVC018 07/04 A2987 RMK AO2 SLP209
T00720044 $=

Extra information for PAKF:More info

Metar Taf Metar & Taf Last 4 Metars F.Rules Stats Wind Profile Meteogram Temp Stats Airport Information Weather charts Add Link Nearby VenuesMetar ALERT Operation Metar Decoded Social comments